Time;durP1;ratioP1;P1;durP2;ratioP2;P2;SDS_P1;SDS_P2;PMS_P1;PMS_P2;Temp;Humidity;BMP_temperature;BMP_pressure;BME280_temperature;BME280_humidity;BME280_pressure;Samples;Min_cycle;Max_cycle;Signal;HPM_P1;HPM_P2
2023/07/11 00:02:17;;;;;;;15.30;11.83;;;23.40;68.70;;;;;;5101736;28;20481;-81
2023/07/11 00:04:45;;;;;;;18.63;11.63;;;23.40;68.70;;;;;;5105503;28;20465;-79
2023/07/11 00:07:13;;;;;;;16.37;11.20;;;23.30;68.70;;;;;;5101576;28;20456;-81
2023/07/11 00:09:41;;;;;;;15.73;11.13;;;23.40;68.70;;;;;;5105690;28;20840;-81
2023/07/11 00:12:09;;;;;;;15.90;10.80;;;23.40;68.70;;;;;;5102717;28;20451;-81
2023/07/11 00:14:37;;;;;;;15.67;9.80;;;23.40;68.60;;;;;;5107794;28;20878;-82
2023/07/11 00:17:07;;;;;;;14.17;10.53;;;23.30;68.60;;;;;;5104739;28;20463;-82
2023/07/11 00:19:48;;;;;;;14.87;11.80;;;23.30;68.60;;;;;;5096049;28;20453;-81
2023/07/11 00:22:16;;;;;;;14.60;10.33;;;23.30;68.60;;;;;;5103830;28;20448;-79
2023/07/11 00:24:45;;;;;;;14.37;11.40;;;23.30;68.60;;;;;;5104182;28;20464;-78
2023/07/11 00:27:13;;;;;;;16.70;11.10;;;23.30;68.50;;;;;;5104535;28;20543;-79
2023/07/11 00:29:41;;;;;;;14.87;10.23;;;23.20;68.50;;;;;;5101595;28;20469;-80
2023/07/11 00:32:11;;;;;;;13.37;10.87;;;23.20;68.50;;;;;;5097295;28;21186;-80
2023/07/11 00:34:40;;;;;;;14.83;10.93;;;23.20;68.50;;;;;;5098412;28;20881;-79
2023/07/11 00:37:08;;;;;;;13.50;10.60;;;23.10;68.50;;;;;;5102345;28;20503;-81
2023/07/11 00:39:37;;;;;;;14.20;11.60;;;23.00;68.60;;;;;;5103211;28;20470;-80
2023/07/11 00:42:06;;;;;;;14.60;10.27;;;22.90;68.60;;;;;;5105409;28;21007;-78
2023/07/11 00:44:53;;;;;;;14.20;11.07;;;22.90;68.70;;;;;;5099998;28;20533;-79
2023/07/11 00:47:26;;;;;;;18.57;11.80;;;22.80;68.80;;;;;;5102695;28;20477;-81
2023/07/11 00:49:57;;;;;;;14.80;11.60;;;22.80;68.90;;;;;;5106839;28;20468;-80
2023/07/11 00:52:28;;;;;;;17.50;11.03;;;22.70;68.90;;;;;;5101597;28;20867;-80
2023/07/11 00:54:59;;;;;;;15.00;11.10;;;22.70;68.90;;;;;;5097509;28;20496;-80
2023/07/11 00:57:29;;;;;;;16.37;11.10;;;22.60;68.80;;;;;;5102395;28;20492;-80
2023/07/11 00:59:57;;;;;;;14.00;10.97;;;22.60;68.80;;;;;;5101318;28;20767;-80
2023/07/11 01:02:28;;;;;;;15.43;11.37;;;22.60;68.80;;;;;;5105459;28;20690;-80
2023/07/11 01:04:56;;;;;;;16.83;11.53;;;22.50;68.90;;;;;;5108340;28;20459;-81
2023/07/11 01:07:27;;;;;;;14.20;10.30;;;22.50;69.00;;;;;;5097753;28;20462;-81
2023/07/11 01:09:58;;;;;;;14.67;11.13;;;22.50;69.10;;;;;;5101640;28;20498;-81
2023/07/11 01:12:27;;;;;;;17.80;11.50;;;22.40;68.90;;;;;;5100314;28;20783;-80
2023/07/11 01:14:55;;;;;;;15.77;11.80;;;22.40;68.70;;;;;;5117198;27;20490;-79
2023/07/11 01:17:27;;;;;;;16.97;12.47;;;22.30;68.80;;;;;;5100789;28;21085;-81
2023/07/11 01:19:56;;;;;;;16.43;11.73;;;22.20;69.10;;;;;;5102395;28;20452;-82
2023/07/11 01:22:27;;;;;;;18.50;11.13;;;22.20;69.20;;;;;;5106360;28;20502;-81
2023/07/11 01:24:58;;;;;;;19.73;11.83;;;22.20;69.10;;;;;;5103172;28;20460;-80
2023/07/11 01:27:25;;;;;;;16.20;11.63;;;22.10;69.00;;;;;;5099890;28;20498;-81
2023/07/11 01:29:54;;;;;;;15.23;11.37;;;22.00;69.00;;;;;;5103541;28;20452;-80
2023/07/11 01:32:22;;;;;;;17.90;12.00;;;22.00;69.20;;;;;;5101111;28;20471;-82
2023/07/11 01:34:50;;;;;;;16.20;11.93;;;22.00;69.40;;;;;;5102304;28;21014;-80
2023/07/11 01:37:18;;;;;;;16.23;12.00;;;21.90;69.40;;;;;;5103588;28;20924;-80
2023/07/11 01:39:47;;;;;;;17.60;11.80;;;21.90;69.40;;;;;;5101206;28;20536;-80
2023/07/11 01:42:15;;;;;;;17.93;12.17;;;21.90;69.60;;;;;;5101976;28;20440;-82
2023/07/11 01:44:43;;;;;;;15.30;11.63;;;21.90;69.70;;;;;;5103854;28;20470;-79
2023/07/11 01:47:11;;;;;;;14.70;11.67;;;22.00;69.70;;;;;;5095121;28;20445;-79
2023/07/11 01:49:39;;;;;;;15.73;11.33;;;22.00;69.60;;;;;;5101064;28;20440;-80
2023/07/11 01:52:23;;;;;;;13.83;11.23;;;22.00;69.60;;;;;;5103583;28;20479;-80
2023/07/11 01:54:52;;;;;;;23.10;11.53;;;22.00;69.60;;;;;;5093896;28;21163;-80
2023/07/11 01:57:20;;;;;;;14.47;11.07;;;22.00;69.60;;;;;;5101221;28;21014;-80
2023/07/11 01:59:48;;;;;;;17.40;12.07;;;22.00;69.60;;;;;;5092453;28;20459;-80
2023/07/11 02:02:16;;;;;;;17.03;11.57;;;22.00;69.60;;;;;;5103642;28;20884;-81
2023/07/11 02:04:45;;;;;;;14.50;10.40;;;22.00;69.60;;;;;;5101838;28;20447;-80
2023/07/11 02:07:13;;;;;;;13.40;10.83;;;22.00;69.60;;;;;;5102808;28;20453;-82
2023/07/11 02:09:42;;;;;;;16.33;11.20;;;22.00;69.60;;;;;;5107216;28;21242;-81
2023/07/11 02:12:13;;;;;;;14.50;12.10;;;22.00;69.50;;;;;;5096857;28;20472;-82
2023/07/11 02:14:42;;;;;;;15.07;11.40;;;22.00;69.40;;;;;;5096420;28;20539;-82
2023/07/11 02:17:14;;;;;;;17.63;12.57;;;22.00;69.30;;;;;;5103754;28;20788;-82
2023/07/11 02:19:44;;;;;;;15.30;11.10;;;21.90;69.30;;;;;;5098982;28;20454;-80
2023/07/11 02:22:12;;;;;;;14.83;10.77;;;21.80;69.40;;;;;;5104670;28;20888;-81
2023/07/11 02:24:40;;;;;;;16.40;11.90;;;21.80;69.40;;;;;;5099972;27;20457;-79
2023/07/11 02:27:09;;;;;;;17.47;12.00;;;21.80;69.40;;;;;;5101338;28;20464;-80
2023/07/11 02:29:38;;;;;;;15.70;12.23;;;21.80;69.50;;;;;;5110362;28;20462;-79
2023/07/11 02:32:06;;;;;;;16.63;11.43;;;21.80;69.50;;;;;;5102448;28;20489;-80
2023/07/11 02:34:34;;;;;;;16.30;11.70;;;21.70;69.50;;;;;;5106882;28;20473;-80
2023/07/11 02:37:02;;;;;;;15.43;11.40;;;21.70;69.60;;;;;;5105748;28;20820;-82
2023/07/11 02:39:30;;;;;;;14.60;11.47;;;21.70;69.60;;;;;;5100813;28;20450;-81
2023/07/11 02:41:58;;;;;;;14.70;12.40;;;21.70;69.60;;;;;;5102666;28;20538;-81
2023/07/11 02:44:26;;;;;;;14.63;10.90;;;21.70;69.50;;;;;;5095814;28;20836;-81
2023/07/11 02:47:11;;;;;;;15.17;10.93;;;21.70;69.50;;;;;;5105620;28;20448;-81
2023/07/11 02:49:41;;;;;;;18.20;12.73;;;21.70;69.60;;;;;;5105007;28;20463;-80
2023/07/11 02:52:10;;;;;;;16.10;11.57;;;21.60;69.60;;;;;;5104538;28;20563;-78
2023/07/11 02:54:39;;;;;;;13.97;10.90;;;21.60;69.80;;;;;;5105393;28;20460;-79
2023/07/11 02:57:08;;;;;;;15.07;11.20;;;21.60;69.80;;;;;;5100354;28;20457;-78
2023/07/11 02:59:38;;;;;;;17.73;12.10;;;21.60;69.90;;;;;;5103207;28;21376;-82
2023/07/11 03:02:06;;;;;;;20.30;11.90;;;21.60;69.90;;;;;;5098560;28;20472;-80
2023/07/11 03:04:36;;;;;;;19.40;10.93;;;21.60;69.80;;;;;;5097314;28;20459;-78
2023/07/11 03:07:04;;;;;;;18.20;11.70;;;21.60;69.80;;;;;;5105197;28;20459;-80
2023/07/11 03:09:34;;;;;;;20.53;12.20;;;21.50;69.70;;;;;;5097892;27;20555;-79
2023/07/11 03:12:02;;;;;;;15.17;11.70;;;21.50;69.70;;;;;;5093994;28;20807;-78
2023/07/11 03:14:30;;;;;;;12.73;10.60;;;21.40;69.70;;;;;;5100285;28;20496;-82
2023/07/11 03:16:58;;;;;;;17.03;13.13;;;21.40;69.80;;;;;;5104889;28;20448;-80
2023/07/11 03:19:26;;;;;;;18.57;12.57;;;21.40;69.80;;;;;;5107014;28;20942;-81
2023/07/11 03:21:56;;;;;;;19.10;13.30;;;21.40;69.80;;;;;;5106187;28;20440;-79
2023/07/11 03:24:23;;;;;;;17.70;12.20;;;21.30;69.80;;;;;;5108543;28;20543;-80
2023/07/11 03:26:51;;;;;;;14.87;12.43;;;21.20;70.10;;;;;;5100362;28;20928;-80
2023/07/11 03:29:19;;;;;;;18.77;12.37;;;21.20;70.30;;;;;;5107333;28;20941;-79
2023/07/11 03:31:47;;;;;;;21.90;11.90;;;21.30;70.30;;;;;;5102924;27;20469;-79
2023/07/11 03:34:15;;;;;;;19.07;12.07;;;21.30;70.20;;;;;;5099450;28;20457;-79
2023/07/11 03:36:43;;;;;;;25.07;12.37;;;21.30;70.10;;;;;;5104125;28;20948;-79
2023/07/11 03:39:12;;;;;;;21.20;12.30;;;21.30;70.10;;;;;;5115752;28;20535;-78
2023/07/11 03:41:40;;;;;;;35.10;12.80;;;21.20;70.10;;;;;;5103357;28;20456;-79
2023/07/11 03:44:09;;;;;;;23.23;12.53;;;21.20;70.00;;;;;;5100256;28;21906;-80
2023/07/11 03:46:37;;;;;;;17.33;11.77;;;21.20;70.10;;;;;;5101672;28;20552;-79
2023/07/11 03:49:06;;;;;;;22.00;13.17;;;21.10;70.20;;;;;;5106590;28;20459;-79
2023/07/11 03:51:34;;;;;;;16.33;12.57;;;21.10;70.20;;;;;;5111919;27;20463;-78
2023/07/11 03:54:03;;;;;;;19.50;12.23;;;21.10;70.30;;;;;;5103820;28;21060;-79
2023/07/11 03:56:32;;;;;;;17.80;11.60;;;21.10;70.40;;;;;;5105871;28;20590;-79
2023/07/11 03:59:00;;;;;;;18.80;11.43;;;21.10;70.50;;;;;;5102110;28;20471;-79
2023/07/11 04:01:28;;;;;;;21.10;12.97;;;21.10;70.60;;;;;;5101542;28;20472;-81
2023/07/11 04:03:56;;;;;;;34.97;13.40;;;21.20;70.60;;;;;;5108730;28;20503;-81
2023/07/11 04:06:24;;;;;;;25.97;13.43;;;21.20;70.50;;;;;;5104712;28;20455;-83
2023/07/11 04:08:52;;;;;;;23.17;12.97;;;21.20;70.40;;;;;;5108587;28;20452;-79
2023/07/11 04:11:20;;;;;;;23.50;12.70;;;21.20;70.40;;;;;;5103360;28;20483;-80
2023/07/11 04:13:51;;;;;;;20.33;13.37;;;21.20;70.50;;;;;;5104902;28;20459;-82
2023/07/11 04:16:19;;;;;;;16.67;11.20;;;21.20;70.50;;;;;;5106593;28;20465;-80
2023/07/11 04:18:48;;;;;;;20.80;13.43;;;21.20;70.60;;;;;;5101137;28;20461;-80
2023/07/11 04:21:16;;;;;;;20.40;13.23;;;21.20;70.70;;;;;;5100293;28;20547;-80
2023/07/11 04:23:47;;;;;;;17.23;12.20;;;21.30;70.70;;;;;;5109605;27;20556;-79
2023/07/11 04:26:15;;;;;;;18.73;11.83;;;21.40;70.80;;;;;;5105561;28;21168;-80
2023/07/11 04:28:43;;;;;;;17.03;11.30;;;21.40;70.80;;;;;;5106845;28;20476;-81
2023/07/11 04:31:13;;;;;;;24.73;12.60;;;21.50;70.90;;;;;;5101161;28;20483;-80
2023/07/11 04:33:48;;;;;;;21.13;12.40;;;21.60;70.80;;;;;;5102438;28;20698;-81
2023/07/11 04:36:17;;;;;;;20.60;12.83;;;21.70;70.80;;;;;;5123021;27;20456;-78
2023/07/11 04:38:45;;;;;;;26.57;13.90;;;21.80;70.70;;;;;;5099800;28;20776;-80
2023/07/11 04:41:13;;;;;;;25.93;12.40;;;21.90;70.60;;;;;;5103725;28;20928;-80
2023/07/11 04:43:41;;;;;;;20.27;12.23;;;22.00;70.60;;;;;;5106766;28;20459;-80
2023/07/11 04:46:10;;;;;;;24.87;12.33;;;22.10;70.50;;;;;;5105128;28;20460;-81
2023/07/11 04:48:40;;;;;;;24.23;12.33;;;22.20;70.40;;;;;;5100292;28;20499;-81
2023/07/11 04:51:10;;;;;;;26.13;12.07;;;22.40;70.30;;;;;;5106533;28;21024;-80
2023/07/11 04:53:39;;;;;;;27.43;11.93;;;22.50;70.30;;;;;;5104369;28;20476;-81
2023/07/11 04:56:09;;;;;;;22.80;13.10;;;22.60;70.30;;;;;;5105708;28;20462;-81
2023/07/11 04:58:38;;;;;;;18.50;12.43;;;22.70;70.30;;;;;;5101870;28;20463;-80
2023/07/11 05:01:09;;;;;;;17.50;11.93;;;22.80;70.20;;;;;;5097644;28;20674;-79
2023/07/11 05:03:37;;;;;;;26.60;13.73;;;22.90;70.20;;;;;;5103389;28;21076;-82
2023/07/11 05:06:07;;;;;;;18.27;12.80;;;23.00;70.10;;;;;;5114160;27;20515;-80
2023/07/11 05:08:36;;;;;;;23.73;13.40;;;23.20;70.20;;;;;;5099763;28;20491;-81
2023/07/11 05:11:07;;;;;;;22.87;12.63;;;23.30;70.10;;;;;;5105972;28;20850;-81
2023/07/11 05:13:35;;;;;;;17.60;13.50;;;23.40;70.10;;;;;;5103947;28;20468;-80
2023/07/11 05:16:05;;;;;;;17.83;13.87;;;23.50;70.10;;;;;;5101463;28;20518;-81
2023/07/11 05:18:35;;;;;;;19.00;14.20;;;23.60;70.10;;;;;;5105720;28;21180;-80
2023/07/11 05:21:02;;;;;;;17.60;12.13;;;23.80;69.90;;;;;;5101021;28;20829;-81
2023/07/11 05:23:32;;;;;;;19.53;14.03;;;23.90;69.90;;;;;;5103854;28;20448;-81
2023/07/11 05:26:01;;;;;;;17.80;14.57;;;24.00;69.90;;;;;;5100266;28;20491;-81
2023/07/11 05:28:30;;;;;;;20.37;15.40;;;24.20;69.90;;;;;;5104421;28;20471;-82
2023/07/11 05:31:01;;;;;;;16.57;13.90;;;24.30;69.90;;;;;;5104135;28;21081;-81
2023/07/11 05:33:29;;;;;;;18.67;14.77;;;24.40;69.90;;;;;;5099043;28;20842;-81
2023/07/11 05:36:05;;;;;;;20.00;14.40;;;24.60;69.80;;;;;;5098168;28;20494;-82
2023/07/11 05:38:35;;;;;;;18.47;13.93;;;24.70;69.90;;;;;;5100265;28;20520;-82
2023/07/11 05:41:03;;;;;;;16.10;13.13;;;25.00;70.00;;;;;;5099314;28;20451;-82
2023/07/11 05:43:30;;;;;;;18.67;13.63;;;25.40;69.60;;;;;;5104123;28;20478;-83
2023/07/11 05:45:58;;;;;;;24.23;12.97;;;26.00;68.60;;;;;;5099684;28;20447;-83
2023/07/11 05:48:26;;;;;;;16.07;12.20;;;26.80;67.30;;;;;;5101719;28;20487;-81
2023/07/11 05:51:00;;;;;;;15.87;12.47;;;27.50;65.80;;;;;;5102845;28;21106;-83
2023/07/11 05:53:28;;;;;;;15.63;11.47;;;28.20;64.40;;;;;;5096706;28;20472;-83
2023/07/11 05:55:58;;;;;;;18.63;11.60;;;28.80;63.50;;;;;;5102162;28;21079;-83
2023/07/11 05:58:28;;;;;;;15.30;11.23;;;29.30;62.80;;;;;;5104208;28;21029;-83
2023/07/11 06:00:58;;;;;;;17.63;11.07;;;29.80;62.00;;;;;;5102730;28;20477;-85
2023/07/11 06:03:29;;;;;;;13.50;11.23;;;30.30;61.10;;;;;;5109517;28;20523;-81
2023/07/11 06:06:01;;;;;;;16.90;11.67;;;30.80;60.20;;;;;;5105551;28;20499;-80
2023/07/11 06:08:29;;;;;;;13.57;10.30;;;31.10;59.30;;;;;;5107815;28;20452;-84
2023/07/11 06:11:01;;;;;;;14.37;11.50;;;31.40;58.50;;;;;;5099277;28;20957;-82
2023/07/11 06:13:31;;;;;;;15.23;11.17;;;31.80;57.60;;;;;;5102067;28;20471;-81
2023/07/11 06:16:00;;;;;;;14.70;11.00;;;32.00;57.00;;;;;;5103938;28;20491;-82
2023/07/11 06:18:28;;;;;;;15.87;10.73;;;32.20;56.20;;;;;;5101272;28;20713;-81
2023/07/11 06:20:57;;;;;;;16.73;10.07;;;32.20;56.00;;;;;;5106177;28;20459;-84
2023/07/11 06:23:25;;;;;;;14.37;9.67;;;31.90;56.00;;;;;;5102754;28;20456;-82
2023/07/11 06:25:53;;;;;;;15.60;10.10;;;31.40;56.00;;;;;;5108118;28;20446;-81
2023/07/11 06:28:23;;;;;;;19.13;11.40;;;30.90;56.50;;;;;;5100322;28;20486;-82
2023/07/11 06:30:51;;;;;;;15.20;10.27;;;30.50;56.80;;;;;;5108971;28;21026;-79
2023/07/11 06:33:19;;;;;;;15.53;10.43;;;30.00;57.40;;;;;;5104078;28;20545;-81
2023/07/11 06:35:50;;;;;;;16.10;10.00;;;29.60;57.80;;;;;;5105122;28;20456;-83
2023/07/11 06:38:18;;;;;;;15.53;10.30;;;29.20;58.30;;;;;;5104681;28;20460;-81
2023/07/11 06:40:50;;;;;;;15.63;11.27;;;28.70;58.70;;;;;;5105671;28;20547;-83
2023/07/11 06:43:19;;;;;;;15.80;9.53;;;28.40;59.10;;;;;;5103316;28;20466;-80
2023/07/11 06:45:49;;;;;;;17.43;10.30;;;28.00;59.60;;;;;;5108836;28;20451;-85
2023/07/11 06:48:19;;;;;;;15.73;10.90;;;27.60;60.10;;;;;;5108532;28;20431;-80
2023/07/11 06:50:50;;;;;;;15.30;10.20;;;27.30;60.70;;;;;;5103587;28;20555;-82
2023/07/11 06:53:18;;;;;;;15.97;10.47;;;27.10;61.10;;;;;;5107282;28;20490;-81
2023/07/11 06:55:47;;;;;;;17.23;9.33;;;26.90;61.50;;;;;;5108142;28;20448;-79
2023/07/11 06:58:15;;;;;;;15.90;10.80;;;26.70;61.80;;;;;;5102479;28;20460;-82
2023/07/11 07:00:43;;;;;;;17.20;10.43;;;26.60;62.10;;;;;;5103941;28;20468;-81
2023/07/11 07:03:16;;;;;;;19.20;10.43;;;26.50;62.50;;;;;;5104406;28;20472;-82
2023/07/11 07:05:48;;;;;;;20.23;11.33;;;26.40;62.70;;;;;;5100137;28;20486;-85
2023/07/11 07:08:17;;;;;;;14.63;9.73;;;26.40;63.00;;;;;;5104085;28;20480;-80
2023/07/11 07:10:47;;;;;;;20.00;10.67;;;26.30;63.30;;;;;;5109678;28;21006;-81
2023/07/11 07:13:15;;;;;;;16.37;10.30;;;26.30;63.50;;;;;;5101183;28;20487;-79
2023/07/11 07:15:47;;;;;;;19.63;10.27;;;26.20;63.60;;;;;;5101182;28;20488;-83
2023/07/11 07:18:16;;;;;;;19.03;10.50;;;26.20;63.90;;;;;;5099403;28;20452;-80
2023/07/11 07:20:45;;;;;;;15.27;10.77;;;26.20;64.00;;;;;;5102447;28;20456;-79
2023/07/11 07:23:26;;;;;;;15.53;10.67;;;26.20;64.10;;;;;;5107490;28;20482;-84
2023/07/11 07:25:56;;;;;;;15.40;10.40;;;26.20;64.30;;;;;;5102748;28;20472;-79
2023/07/11 07:28:25;;;;;;;18.07;11.57;;;26.20;64.40;;;;;;5104556;28;20884;-81
2023/07/11 07:30:55;;;;;;;18.63;10.70;;;26.20;64.50;;;;;;5103010;27;20503;-81
2023/07/11 07:33:26;;;;;;;22.23;11.20;;;26.20;64.60;;;;;;5108601;28;20544;-83
2023/07/11 07:35:56;;;;;;;20.60;10.70;;;26.20;64.70;;;;;;5106676;28;20449;-80
2023/07/11 07:38:27;;;;;;;13.10;9.40;;;26.20;64.70;;;;;;5105413;27;20444;-80
2023/07/11 07:40:57;;;;;;;19.83;11.73;;;26.20;64.70;;;;;;5102439;28;20448;-81
2023/07/11 07:43:27;;;;;;;17.53;10.60;;;26.30;64.70;;;;;;5108071;28;20463;-84
2023/07/11 07:45:57;;;;;;;16.70;9.60;;;26.30;64.70;;;;;;5103023;28;20464;-80
2023/07/11 07:48:27;;;;;;;15.50;9.10;;;26.30;64.60;;;;;;5103089;28;20493;-85
2023/07/11 07:51:02;;;;;;;25.87;10.40;;;26.40;64.70;;;;;;5103916;28;20473;-79
2023/07/11 07:53:31;;;;;;;13.80;9.47;;;26.50;64.70;;;;;;5106189;28;20487;-81
2023/07/11 07:56:09;;;;;;;18.37;9.73;;;26.50;64.60;;;;;;5104406;28;20896;-80
2023/07/11 07:58:38;;;;;;;21.33;9.67;;;26.60;64.50;;;;;;5104096;28;20812;-83
2023/07/11 08:01:12;;;;;;;17.60;9.13;;;26.60;64.40;;;;;;5099916;28;20483;-82
2023/07/11 08:03:41;;;;;;;15.13;8.80;;;26.70;64.20;;;;;;5100937;28;20440;-82
2023/07/11 08:06:11;;;;;;;13.33;7.90;;;26.80;64.20;;;;;;5101005;28;20969;-81
2023/07/11 08:08:45;;;;;;;12.00;7.50;;;26.90;64.00;;;;;;5106393;28;20451;-83
2023/07/11 08:11:14;;;;;;;14.43;9.00;;;26.90;63.70;;;;;;5104668;28;20543;-81
2023/07/11 08:13:42;;;;;;;14.80;8.53;;;27.00;63.70;;;;;;5113281;27;20484;-82
2023/07/11 08:16:14;;;;;;;12.30;8.10;;;27.00;63.60;;;;;;5104977;28;20448;-78
2023/07/11 08:18:59;;;;;;;11.83;8.43;;;27.10;63.60;;;;;;5103158;28;20958;-80
2023/07/11 08:21:27;;;;;;;12.47;7.60;;;27.10;63.30;;;;;;5107984;28;20455;-83
2023/07/11 08:23:55;;;;;;;9.13;6.80;;;27.20;62.80;;;;;;5106317;27;20794;-78
2023/07/11 08:26:25;;;;;;;11.37;6.83;;;27.20;62.60;;;;;;5101592;28;20464;-83
2023/07/11 08:28:54;;;;;;;12.37;7.13;;;27.20;61.90;;;;;;5101039;28;20467;-80
2023/07/11 08:31:23;;;;;;;11.10;6.67;;;27.30;61.60;;;;;;5099081;28;20472;-81
2023/07/11 08:33:53;;;;;;;12.33;6.47;;;27.40;60.60;;;;;;5098847;28;20487;-81
2023/07/11 08:36:24;;;;;;;10.47;7.23;;;27.50;60.30;;;;;;5102281;28;20488;-77
2023/07/11 08:38:53;;;;;;;12.07;6.93;;;27.60;60.00;;;;;;5101238;28;20453;-83
2023/07/11 08:41:32;;;;;;;12.00;6.30;;;27.70;59.70;;;;;;5104089;28;20920;-79
2023/07/11 08:44:09;;;;;;;10.17;6.47;;;27.70;59.30;;;;;;5102591;28;21000;-82
2023/07/11 08:46:44;;;;;;;12.37;6.67;;;27.70;59.10;;;;;;5107299;28;20493;-79
2023/07/11 08:49:17;;;;;;;10.60;6.50;;;27.70;58.90;;;;;;5111198;28;20451;-82
2023/07/11 08:51:50;;;;;;;12.77;6.40;;;27.80;58.70;;;;;;5105100;28;20535;-81
2023/07/11 08:54:23;;;;;;;9.67;6.27;;;27.80;58.40;;;;;;5105689;28;20521;-81
2023/07/11 08:56:52;;;;;;;9.40;6.17;;;27.90;58.30;;;;;;5107554;28;21012;-83
2023/07/11 08:59:25;;;;;;;10.03;6.30;;;28.00;58.10;;;;;;5104614;28;20448;-80
2023/07/11 09:02:03;;;;;;;11.43;5.87;;;28.10;57.60;;;;;;5101949;28;21028;-79
2023/07/11 09:04:31;;;;;;;10.53;6.87;;;28.10;57.20;;;;;;5101167;28;20426;-81
2023/07/11 09:07:06;;;;;;;10.43;5.93;;;28.20;57.00;;;;;;5102685;28;20542;-80
2023/07/11 09:09:35;;;;;;;8.83;5.10;;;28.20;56.60;;;;;;5106465;28;20444;-80
2023/07/11 09:12:13;;;;;;;9.03;5.50;;;28.30;56.70;;;;;;5096664;28;20540;-81
2023/07/11 09:14:50;;;;;;;8.13;4.77;;;28.30;56.50;;;;;;5097542;28;20476;-79
2023/07/11 09:17:27;;;;;;;11.00;6.27;;;28.30;56.30;;;;;;5104234;28;20455;-82
2023/07/11 09:20:07;;;;;;;9.60;5.40;;;28.40;56.40;;;;;;5099182;28;20782;-80
2023/07/11 09:22:47;;;;;;;10.33;6.03;;;28.50;56.40;;;;;;5101113;28;20485;-80
2023/07/11 09:25:19;;;;;;;9.67;5.70;;;28.50;56.20;;;;;;5101944;28;20444;-80
2023/07/11 09:27:52;;;;;;;13.90;5.63;;;28.50;56.20;;;;;;5103027;28;20478;-83
2023/07/11 09:30:28;;;;;;;11.33;5.97;;;28.60;56.30;;;;;;5102704;28;20475;-81
2023/07/11 09:33:05;;;;;;;11.10;5.77;;;28.60;56.20;;;;;;5098419;28;20459;-80
2023/07/11 09:35:34;;;;;;;10.77;6.07;;;28.70;56.20;;;;;;5104991;28;20472;-82
2023/07/11 09:38:07;;;;;;;11.37;6.17;;;28.70;56.20;;;;;;5103009;28;20466;-81
2023/07/11 09:40:40;;;;;;;8.40;5.30;;;28.80;56.10;;;;;;5100102;28;20457;-79
2023/07/11 09:43:10;;;;;;;15.40;6.10;;;28.80;56.10;;;;;;5119462;28;20968;-80
2023/07/11 09:45:42;;;;;;;10.00;5.13;;;28.80;55.90;;;;;;5100706;28;20464;-81
2023/07/11 09:48:15;;;;;;;13.50;5.30;;;28.90;55.90;;;;;;5100019;28;20456;-81
2023/07/11 09:51:03;;;;;;;9.60;5.83;;;28.90;55.80;;;;;;5105225;28;20446;-81
2023/07/11 09:53:47;;;;;;;11.10;5.57;;;29.00;55.60;;;;;;5100302;28;20445;-79
2023/07/11 09:56:17;;;;;;;11.50;5.90;;;29.00;55.80;;;;;;5103487;28;20471;-80
2023/07/11 09:58:50;;;;;;;9.50;5.40;;;29.00;55.80;;;;;;5103622;28;20808;-80
2023/07/11 10:01:23;;;;;;;11.00;6.00;;;29.10;55.80;;;;;;5097383;28;20480;-79
2023/07/11 10:03:55;;;;;;;9.27;6.10;;;29.10;55.70;;;;;;5101837;28;20468;-82
2023/07/11 10:06:33;;;;;;;8.83;5.30;;;29.20;55.70;;;;;;5104985;28;20480;-80
2023/07/11 10:09:15;;;;;;;9.40;5.10;;;29.30;55.70;;;;;;5103118;28;21086;-84
2023/07/11 10:11:52;;;;;;;14.10;6.20;;;29.40;55.80;;;;;;5100891;28;21141;-81
2023/07/11 10:14:22;;;;;;;9.80;5.30;;;29.40;55.60;;;;;;5104368;28;20557;-80
2023/07/11 10:16:52;;;;;;;7.93;5.50;;;29.50;55.40;;;;;;5102216;28;21001;-82
2023/07/11 10:19:23;;;;;;;9.97;5.67;;;29.50;55.40;;;;;;5097938;28;20431;-80
2023/07/11 10:21:53;;;;;;;8.87;6.17;;;29.60;55.40;;;;;;5106310;27;21294;-80
2023/07/11 10:24:25;;;;;;;9.13;5.30;;;29.60;55.30;;;;;;5102676;28;21010;-81
2023/07/11 10:26:59;;;;;;;9.47;6.20;;;29.60;55.50;;;;;;5096807;28;20452;-81
2023/07/11 10:29:30;;;;;;;12.93;6.40;;;29.70;55.30;;;;;;5103402;28;20962;-79
2023/07/11 10:32:04;;;;;;;11.70;5.43;;;29.70;55.10;;;;;;5094959;28;20503;-80
2023/07/11 10:34:38;;;;;;;9.50;5.50;;;29.70;55.00;;;;;;5104232;28;20551;-80
2023/07/11 10:37:12;;;;;;;8.50;5.37;;;29.80;54.90;;;;;;5100598;28;20989;-83
2023/07/11 10:39:47;;;;;;;10.57;6.33;;;30.00;55.10;;;;;;5105162;28;20448;-78
2023/07/11 10:42:27;;;;;;;9.73;5.07;;;30.00;55.00;;;;;;5097093;28;20460;-83
2023/07/11 10:45:06;;;;;;;10.10;5.40;;;30.10;54.80;;;;;;5102410;28;20551;-78
2023/07/11 10:48:21;;;;;;;8.40;5.40;;;30.10;54.80;;;;;;5094753;28;20460;-79
2023/07/11 10:50:54;;;;;;;9.60;5.83;;;30.10;54.60;;;;;;5106062;28;20469;-82
2023/07/11 10:53:29;;;;;;;10.00;5.90;;;30.10;54.70;;;;;;5103711;28;20467;-80
2023/07/11 11:01:41;;;;;;;8.53;5.53;;;30.20;54.80;;;;;;5051402;28;20461;-81
2023/07/11 11:04:22;;;;;;;9.47;6.00;;;30.30;54.50;;;;;;5054962;28;20481;-82
2023/07/11 11:06:56;;;;;;;11.77;6.07;;;30.30;54.40;;;;;;5058280;28;20473;-81
2023/07/11 11:13:12;;;;;;;15.00;6.20;;;30.50;53.90;;;;;;5053775;28;21064;-80
2023/07/11 11:15:49;;;;;;;13.57;6.07;;;30.60;54.00;;;;;;5052149;28;20517;-81
2023/07/11 11:18:33;;;;;;;11.30;7.20;;;30.70;53.80;;;;;;5061156;28;20842;-78
2023/07/11 11:21:09;;;;;;;9.57;6.07;;;30.80;53.50;;;;;;5060701;28;20480;-81
2023/07/11 11:24:02;;;;;;;9.23;5.97;;;30.80;53.50;;;;;;5058617;28;20481;-81
2023/07/11 11:26:36;;;;;;;10.30;6.37;;;30.80;53.30;;;;;;5065948;28;20447;-80
2023/07/11 11:29:13;;;;;;;12.33;6.60;;;30.80;53.00;;;;;;5099426;28;20573;-81
2023/07/11 11:31:50;;;;;;;10.57;6.33;;;30.80;52.90;;;;;;5096852;28;20498;-79
2023/07/11 11:34:36;;;;;;;11.80;6.17;;;30.80;52.80;;;;;;5096361;28;20479;-81
2023/07/11 11:37:13;;;;;;;13.90;6.90;;;30.80;52.90;;;;;;5096783;28;20506;-80
2023/07/11 11:40:24;;;;;;;10.53;6.03;;;30.90;53.00;;;;;;5098869;28;20448;-82
2023/07/11 11:43:14;;;;;;;12.73;7.10;;;30.90;53.00;;;;;;5095728;28;20529;-80
2023/07/11 11:45:49;;;;;;;11.60;6.30;;;31.00;53.00;;;;;;5098860;28;21063;-80
2023/07/11 11:48:22;;;;;;;11.57;6.60;;;31.00;52.90;;;;;;5098636;28;20995;-81
2023/07/11 11:51:16;;;;;;;16.50;7.27;;;31.00;52.50;;;;;;5094487;28;20834;-80
2023/07/11 11:53:47;;;;;;;11.00;6.67;;;31.10;52.60;;;;;;5098359;28;20478;-78
2023/07/11 12:00:38;;;;;;;9.80;6.13;;;31.10;53.10;;;;;;5097475;28;20782;-81
2023/07/11 12:03:18;;;;;;;9.23;6.47;;;31.20;53.20;;;;;;5093669;28;20480;-80
2023/07/11 12:05:49;;;;;;;13.20;6.50;;;31.30;53.00;;;;;;5094601;28;20472;-80
2023/07/11 12:08:33;;;;;;;10.77;6.50;;;31.30;52.80;;;;;;5096724;28;20497;-78
2023/07/11 12:11:30;;;;;;;12.27;6.60;;;31.30;52.50;;;;;;5095507;28;20453;-82
2023/07/11 12:14:24;;;;;;;11.73;6.60;;;31.30;52.50;;;;;;5093345;28;21032;-79
2023/07/11 12:16:53;;;;;;;10.13;6.60;;;31.40;52.30;;;;;;5093915;28;20469;-82
2023/07/11 12:19:41;;;;;;;10.27;6.70;;;31.40;52.50;;;;;;5097756;28;20459;-80
2023/07/11 12:22:10;;;;;;;9.90;6.00;;;31.40;52.50;;;;;;5092871;28;20857;-79
2023/07/11 12:24:43;;;;;;;10.93;6.53;;;31.40;52.10;;;;;;5098665;28;20496;-83
2023/07/11 12:28:00;;;;;;;11.43;6.60;;;31.50;52.10;;;;;;5094945;28;21044;-80
2023/07/11 12:30:37;;;;;;;9.80;6.50;;;31.50;52.30;;;;;;5093438;28;20471;-78
2023/07/11 12:33:33;;;;;;;12.10;6.70;;;31.60;52.20;;;;;;5094326;28;20579;-81
2023/07/11 12:36:26;;;;;;;13.47;7.53;;;31.70;52.20;;;;;;5072967;28;20525;-82
2023/07/11 12:39:00;;;;;;;10.60;6.50;;;31.70;52.10;;;;;;5091055;28;20483;-81
2023/07/11 12:41:38;;;;;;;12.53;7.10;;;31.80;52.20;;;;;;5098712;28;20534;-80
2023/07/11 12:44:16;;;;;;;14.80;8.03;;;31.80;51.80;;;;;;5092608;28;21140;-81
2023/07/11 12:46:46;;;;;;;11.27;6.80;;;31.90;51.50;;;;;;5096237;28;20545;-78
2023/07/11 12:49:24;;;;;;;10.90;6.63;;;31.90;51.20;;;;;;5092874;28;20550;-84
2023/07/11 12:51:52;;;;;;;13.60;7.20;;;31.90;51.10;;;;;;5092206;28;20484;-79
2023/07/11 12:54:24;;;;;;;10.70;6.83;;;31.90;51.10;;;;;;5097499;28;20450;-80
2023/07/11 12:56:52;;;;;;;12.20;7.30;;;32.00;51.10;;;;;;5098072;28;20503;-83
2023/07/11 12:59:31;;;;;;;9.30;6.80;;;32.00;50.90;;;;;;5096741;28;20487;-81
2023/07/11 13:09:56;;;;;;;10.60;6.83;;;32.10;50.60;;;;;;5095269;28;20435;-81
2023/07/11 13:12:27;;;;;;;13.73;7.47;;;32.10;50.70;;;;;;5095802;28;20542;-80
2023/07/11 13:15:24;;;;;;;15.20;7.27;;;32.20;50.70;;;;;;5091777;28;21156;-80
2023/07/11 13:17:56;;;;;;;12.10;6.70;;;32.20;50.50;;;;;;5091602;28;20580;-86
2023/07/11 13:20:27;;;;;;;14.43;7.30;;;32.30;50.30;;;;;;5093114;28;20473;-83